Etusivu
METAR-TAF:

METAR-TAF

Lentoasemat :

Jämsä, Suomi

Hallin lentoasema

Leveyspiiri: 61-51N, Pituuspiiri: 024-48E, korkeus merenpinnasta: 143 m

Tämänhetkinen sää

Tämä raportti tehtiin 31 minuuttia sitten, kello 14.20 UTC
Tuuli 13 kn etelästä/lounaasta
Lämpötila -3°C
Kosteus 93%
Ilmanpaine 992 hPa
Näkyvyys 10 km tai enemmän
Pilvistä 1100 ft:n korkeudessa

METAR: EFHA 131420Z AUTO 21013KT 9999 OVC011 M03/M04 Q0992

Aika: 16:51 (14:51 UTC)

Sääennuste

Tämä raportti tehtiin 3 tuntia ja 21 minuuttia sitten, kello 11.30 UTC
Ennuste voimassa 13. päivästä klo 12 UTC - 13. päivään klo 14 UTC
Tuuli 12 kn etelästä/lounaasta
Näkyvyys 10 km tai enemmän
Hajonneita pilviä 1000 ft:n korkeudessa
Tulossa
13. päivästä klo 12 UTC - 13. päivään klo 14 UTC
Hajanaisia pilviä 1000 ft:n korkeudessa
Hajonneita pilviä 2000 ft:n korkeudessa

TAF: EFHA 131130Z 1312/1314 21012KT 9999 BKN010 BECMG 1312/1314 SCT010 BKN020

Säähavainnot ja -ennusteet yli 4000 lentoasemalta (METAR- ja TAF-raportit).

Käytössä olevat sääasemat on merkitty karttaan keltaisilla ja punaisilla pisteillä.

Aseta hiiri pisteen päälle nähdäksesi sääaseman nimen.

Klikkaa sitten nähdäksesi säähavainnot ja -ennusteet.

Kartan vaihtaminen: klikkaa mustalla rastilla varustettuja vihreitä pisteitä, niin voit zoomata sisään; viivalla varustettua vihreää pistettä, niin voit zoomata ulos tai vihreitä nuolia, niin pääset viereisille kartoille.


METAR-TAF: